Woodland, Pennsylvania
Current Conditions -  °F | °C
As of 2:54 AM on Thursday 23 Oct 2014 (Local Time) from KFIG Reporting Station
Overcast Overcast  
Wind Chill: 41°   Ceiling: 1500
Heat Index: 46°   Visibility: 10mi
Dew Point: 40°   Wind: 12mph
Humidity: 79%   Direction: 350°N
Pressure: 30.03"   Gusts: NA
Location:  41°N, 78.34°W
Report Text: KFIG 230654Z AUTO 35010KT 10SM OVC015 08/04 A3003 RMK AO2 SLP175 T00780044
Loading
Personal Weather Stations






























Interactive Weather Map
Tropical Storm Tracking
New forecast layout! Learn more

10-Day Weather Forecast

Advertisements
Track Severe Weather on mobile